sensor_id;sensor_type;location;lat;lon;timestamp;P1;durP1;ratioP1;P2;durP2;ratioP2
60722;SDS011;46574;52.818;6.516;2022-08-21T00:00:47;6.40;;;5.80;;
60722;SDS011;46574;52.818;6.516;2022-08-21T00:03:13;7.38;;;6.43;;
60722;SDS011;46574;52.818;6.516;2022-08-21T00:05:49;8.18;;;5.88;;
60722;SDS011;46574;52.818;6.516;2022-08-21T00:08:16;7.18;;;6.30;;
60722;SDS011;46574;52.818;6.516;2022-08-21T00:10:42;6.03;;;5.53;;
60722;SDS011;46574;52.818;6.516;2022-08-21T00:13:09;5.80;;;5.28;;
60722;SDS011;46574;52.818;6.516;2022-08-21T00:15:36;6.00;;;4.88;;
60722;SDS011;46574;52.818;6.516;2022-08-21T00:18:03;6.30;;;4.93;;
60722;SDS011;46574;52.818;6.516;2022-08-21T00:20:30;6.30;;;5.50;;
60722;SDS011;46574;52.818;6.516;2022-08-21T00:22:57;6.85;;;5.78;;
60722;SDS011;46574;52.818;6.516;2022-08-21T00:25:23;6.85;;;6.20;;
60722;SDS011;46574;52.818;6.516;2022-08-21T00:27:49;7.93;;;5.82;;
60722;SDS011;46574;52.818;6.516;2022-08-21T00:30:16;8.13;;;7.35;;
60722;SDS011;46574;52.818;6.516;2022-08-21T00:32:43;6.95;;;6.35;;
60722;SDS011;46574;52.818;6.516;2022-08-21T00:35:11;7.82;;;7.03;;
60722;SDS011;46574;52.818;6.516;2022-08-21T00:37:40;5.25;;;4.85;;
60722;SDS011;46574;52.818;6.516;2022-08-21T00:40:07;7.15;;;6.55;;
60722;SDS011;46574;52.818;6.516;2022-08-21T00:42:35;7.20;;;6.50;;
60722;SDS011;46574;52.818;6.516;2022-08-21T00:45:02;9.18;;;6.22;;
60722;SDS011;46574;52.818;6.516;2022-08-21T00:47:30;7.50;;;6.80;;
60722;SDS011;46574;52.818;6.516;2022-08-21T00:49:55;8.95;;;7.65;;
60722;SDS011;46574;52.818;6.516;2022-08-21T00:52:22;7.70;;;6.18;;
60722;SDS011;46574;52.818;6.516;2022-08-21T00:54:51;7.38;;;6.00;;
60722;SDS011;46574;52.818;6.516;2022-08-21T00:57:24;8.38;;;7.32;;
60722;SDS011;46574;52.818;6.516;2022-08-21T00:59:54;9.63;;;8.27;;
60722;SDS011;46574;52.818;6.516;2022-08-21T01:04:48;9.25;;;7.82;;
60722;SDS011;46574;52.818;6.516;2022-08-21T01:07:14;10.95;;;8.02;;
60722;SDS011;46574;52.818;6.516;2022-08-21T01:09:40;7.18;;;6.25;;
60722;SDS011;46574;52.818;6.516;2022-08-21T01:12:06;7.70;;;6.97;;
60722;SDS011;46574;52.818;6.516;2022-08-21T01:14:33;10.40;;;7.30;;
60722;SDS011;46574;52.818;6.516;2022-08-21T01:16:59;10.45;;;9.20;;
60722;SDS011;46574;52.818;6.516;2022-08-21T01:19:27;7.35;;;6.60;;
60722;SDS011;46574;52.818;6.516;2022-08-21T01:21:54;7.00;;;6.30;;
60722;SDS011;46574;52.818;6.516;2022-08-21T01:24:20;8.98;;;6.97;;
60722;SDS011;46574;52.818;6.516;2022-08-21T01:26:46;9.40;;;6.70;;
60722;SDS011;46574;52.818;6.516;2022-08-21T01:32:05;7.45;;;6.25;;
60722;SDS011;46574;52.818;6.516;2022-08-21T01:34:38;6.13;;;5.53;;
60722;SDS011;46574;52.818;6.516;2022-08-21T01:37:07;7.78;;;6.97;;
60722;SDS011;46574;52.818;6.516;2022-08-21T01:39:34;7.25;;;6.65;;
60722;SDS011;46574;52.818;6.516;2022-08-21T01:42:00;6.88;;;6.28;;
60722;SDS011;46574;52.818;6.516;2022-08-21T01:44:26;7.93;;;7.13;;
60722;SDS011;46574;52.818;6.516;2022-08-21T01:46:52;9.50;;;8.57;;
60722;SDS011;46574;52.818;6.516;2022-08-21T01:49:19;8.73;;;8.02;;
60722;SDS011;46574;52.818;6.516;2022-08-21T01:51:45;8.98;;;7.72;;
60722;SDS011;46574;52.818;6.516;2022-08-21T01:54:10;9.65;;;8.73;;
60722;SDS011;46574;52.818;6.516;2022-08-21T01:56:44;10.82;;;9.55;;
60722;SDS011;46574;52.818;6.516;2022-08-21T01:59:13;9.55;;;8.60;;
60722;SDS011;46574;52.818;6.516;2022-08-21T02:01:39;8.98;;;8.07;;
60722;SDS011;46574;52.818;6.516;2022-08-21T02:04:06;10.32;;;8.55;;
60722;SDS011;46574;52.818;6.516;2022-08-21T02:06:33;9.02;;;7.90;;
60722;SDS011;46574;52.818;6.516;2022-08-21T02:08:59;10.75;;;9.65;;
60722;SDS011;46574;52.818;6.516;2022-08-21T02:11:26;10.18;;;7.68;;
60722;SDS011;46574;52.818;6.516;2022-08-21T02:13:51;8.27;;;7.47;;
60722;SDS011;46574;52.818;6.516;2022-08-21T02:16:17;11.52;;;10.32;;
60722;SDS011;46574;52.818;6.516;2022-08-21T02:18:43;9.65;;;8.75;;
60722;SDS011;46574;52.818;6.516;2022-08-21T02:21:08;9.43;;;8.55;;
60722;SDS011;46574;52.818;6.516;2022-08-21T02:23:34;9.70;;;8.50;;
60722;SDS011;46574;52.818;6.516;2022-08-21T02:26:01;10.13;;;9.00;;
60722;SDS011;46574;52.818;6.516;2022-08-21T02:28:29;10.50;;;9.07;;
60722;SDS011;46574;52.818;6.516;2022-08-21T02:30:55;12.13;;;10.75;;
60722;SDS011;46574;52.818;6.516;2022-08-21T02:33:21;9.65;;;8.65;;
60722;SDS011;46574;52.818;6.516;2022-08-21T02:35:48;9.85;;;8.85;;
60722;SDS011;46574;52.818;6.516;2022-08-21T02:38:16;11.93;;;9.75;;
60722;SDS011;46574;52.818;6.516;2022-08-21T02:40:47;10.45;;;8.80;;
60722;SDS011;46574;52.818;6.516;2022-08-21T02:43:14;10.73;;;9.57;;
60722;SDS011;46574;52.818;6.516;2022-08-21T02:45:41;8.63;;;7.82;;
60722;SDS011;46574;52.818;6.516;2022-08-21T02:48:09;12.27;;;9.63;;
60722;SDS011;46574;52.818;6.516;2022-08-21T02:50:37;12.23;;;9.65;;
60722;SDS011;46574;52.818;6.516;2022-08-21T02:53:08;8.75;;;7.93;;
60722;SDS011;46574;52.818;6.516;2022-08-21T02:55:35;9.50;;;8.48;;
60722;SDS011;46574;52.818;6.516;2022-08-21T02:58:02;10.13;;;9.23;;
60722;SDS011;46574;52.818;6.516;2022-08-21T03:00:33;10.85;;;9.85;;
60722;SDS011;46574;52.818;6.516;2022-08-21T03:03:00;8.48;;;7.60;;
60722;SDS011;46574;52.818;6.516;2022-08-21T03:05:27;11.32;;;10.23;;
60722;SDS011;46574;52.818;6.516;2022-08-21T03:07:56;11.05;;;10.05;;
60722;SDS011;46574;52.818;6.516;2022-08-21T03:10:23;10.15;;;9.15;;
60722;SDS011;46574;52.818;6.516;2022-08-21T03:12:50;10.82;;;9.77;;
60722;SDS011;46574;52.818;6.516;2022-08-21T03:15:20;11.60;;;9.95;;
60722;SDS011;46574;52.818;6.516;2022-08-21T03:17:48;10.52;;;9.43;;
60722;SDS011;46574;52.818;6.516;2022-08-21T03:20:16;10.40;;;9.40;;
60722;SDS011;46574;52.818;6.516;2022-08-21T03:22:43;12.13;;;10.47;;
60722;SDS011;46574;52.818;6.516;2022-08-21T03:25:09;10.75;;;9.65;;
60722;SDS011;46574;52.818;6.516;2022-08-21T03:27:36;11.00;;;10.00;;
60722;SDS011;46574;52.818;6.516;2022-08-21T03:30:02;11.65;;;10.32;;
60722;SDS011;46574;52.818;6.516;2022-08-21T03:32:30;11.27;;;10.23;;
60722;SDS011;46574;52.818;6.516;2022-08-21T03:34:56;10.27;;;9.20;;
60722;SDS011;46574;52.818;6.516;2022-08-21T03:37:22;11.95;;;9.57;;
60722;SDS011;46574;52.818;6.516;2022-08-21T03:39:49;11.98;;;9.48;;
60722;SDS011;46574;52.818;6.516;2022-08-21T03:42:15;12.02;;;10.02;;
60722;SDS011;46574;52.818;6.516;2022-08-21T03:44:41;10.15;;;9.18;;
60722;SDS011;46574;52.818;6.516;2022-08-21T03:47:07;10.57;;;9.02;;
60722;SDS011;46574;52.818;6.516;2022-08-21T03:49:33;11.45;;;10.30;;
60722;SDS011;46574;52.818;6.516;2022-08-21T03:51:59;9.98;;;8.90;;
60722;SDS011;46574;52.818;6.516;2022-08-21T03:54:25;8.50;;;7.53;;
60722;SDS011;46574;52.818;6.516;2022-08-21T03:56:51;9.68;;;8.70;;
60722;SDS011;46574;52.818;6.516;2022-08-21T03:59:17;12.18;;;9.30;;
60722;SDS011;46574;52.818;6.516;2022-08-21T04:01:56;10.45;;;9.23;;
60722;SDS011;46574;52.818;6.516;2022-08-21T04:04:24;11.10;;;9.35;;
60722;SDS011;46574;52.818;6.516;2022-08-21T04:06:51;12.48;;;8.93;;
60722;SDS011;46574;52.818;6.516;2022-08-21T04:09:17;10.60;;;9.60;;
60722;SDS011;46574;52.818;6.516;2022-08-21T04:11:43;9.25;;;7.82;;
60722;SDS011;46574;52.818;6.516;2022-08-21T04:14:10;10.13;;;9.18;;
60722;SDS011;46574;52.818;6.516;2022-08-21T04:16:37;9.25;;;8.43;;
60722;SDS011;46574;52.818;6.516;2022-08-21T04:19:03;10.70;;;9.60;;
60722;SDS011;46574;52.818;6.516;2022-08-21T04:21:29;12.38;;;10.75;;
60722;SDS011;46574;52.818;6.516;2022-08-21T04:23:55;9.60;;;8.65;;
60722;SDS011;46574;52.818;6.516;2022-08-21T04:26:21;11.00;;;9.30;;
60722;SDS011;46574;52.818;6.516;2022-08-21T04:28:47;9.63;;;8.48;;
60722;SDS011;46574;52.818;6.516;2022-08-21T04:31:13;9.63;;;8.60;;
60722;SDS011;46574;52.818;6.516;2022-08-21T04:33:39;10.30;;;9.30;;
60722;SDS011;46574;52.818;6.516;2022-08-21T04:36:04;10.43;;;9.18;;
60722;SDS011;46574;52.818;6.516;2022-08-21T04:38:31;10.77;;;9.68;;
60722;SDS011;46574;52.818;6.516;2022-08-21T04:40:57;11.18;;;10.07;;
60722;SDS011;46574;52.818;6.516;2022-08-21T04:43:23;10.15;;;8.73;;
60722;SDS011;46574;52.818;6.516;2022-08-21T04:45:49;10.60;;;9.60;;
60722;SDS011;46574;52.818;6.516;2022-08-21T04:48:17;9.02;;;8.13;;
60722;SDS011;46574;52.818;6.516;2022-08-21T04:50:49;11.43;;;10.17;;
60722;SDS011;46574;52.818;6.516;2022-08-21T04:53:41;8.90;;;8.10;;
60722;SDS011;46574;52.818;6.516;2022-08-21T04:56:08;10.15;;;9.25;;
60722;SDS011;46574;52.818;6.516;2022-08-21T04:58:40;10.68;;;9.60;;
60722;SDS011;46574;52.818;6.516;2022-08-21T05:01:08;8.70;;;7.93;;
60722;SDS011;46574;52.818;6.516;2022-08-21T05:03:38;10.90;;;9.80;;
60722;SDS011;46574;52.818;6.516;2022-08-21T05:06:08;10.52;;;9.43;;
60722;SDS011;46574;52.818;6.516;2022-08-21T05:08:35;10.77;;;9.27;;
60722;SDS011;46574;52.818;6.516;2022-08-21T05:11:03;11.68;;;9.27;;
60722;SDS011;46574;52.818;6.516;2022-08-21T05:13:29;10.68;;;9.52;;
60722;SDS011;46574;52.818;6.516;2022-08-21T05:15:55;13.20;;;10.95;;
60722;SDS011;46574;52.818;6.516;2022-08-21T05:18:21;10.73;;;9.63;;
60722;SDS011;46574;52.818;6.516;2022-08-21T05:20:46;10.05;;;9.00;;
60722;SDS011;46574;52.818;6.516;2022-08-21T05:23:13;9.45;;;8.55;;
60722;SDS011;46574;52.818;6.516;2022-08-21T05:25:39;11.27;;;8.98;;
60722;SDS011;46574;52.818;6.516;2022-08-21T05:28:06;11.02;;;9.60;;
60722;SDS011;46574;52.818;6.516;2022-08-21T05:30:32;8.52;;;7.72;;
60722;SDS011;46574;52.818;6.516;2022-08-21T05:32:59;9.88;;;8.02;;
60722;SDS011;46574;52.818;6.516;2022-08-21T05:35:26;8.50;;;6.82;;
60722;SDS011;46574;52.818;6.516;2022-08-21T05:37:53;8.48;;;7.68;;
60722;SDS011;46574;52.818;6.516;2022-08-21T05:40:19;10.70;;;8.68;;
60722;SDS011;46574;52.818;6.516;2022-08-21T05:42:44;9.57;;;7.70;;
60722;SDS011;46574;52.818;6.516;2022-08-21T05:45:11;9.77;;;7.85;;
60722;SDS011;46574;52.818;6.516;2022-08-21T05:47:36;10.40;;;8.18;;
60722;SDS011;46574;52.818;6.516;2022-08-21T05:50:03;8.02;;;7.07;;
60722;SDS011;46574;52.818;6.516;2022-08-21T05:52:29;8.10;;;6.60;;
60722;SDS011;46574;52.818;6.516;2022-08-21T05:54:54;7.93;;;7.18;;
60722;SDS011;46574;52.818;6.516;2022-08-21T05:57:21;7.80;;;7.10;;
60722;SDS011;46574;52.818;6.516;2022-08-21T05:59:48;10.40;;;7.47;;
60722;SDS011;46574;52.818;6.516;2022-08-21T06:02:14;8.32;;;6.90;;
60722;SDS011;46574;52.818;6.516;2022-08-21T06:04:42;8.27;;;7.20;;
60722;SDS011;46574;52.818;6.516;2022-08-21T06:07:08;7.80;;;6.60;;
60722;SDS011;46574;52.818;6.516;2022-08-21T06:09:34;9.80;;;7.55;;
60722;SDS011;46574;52.818;6.516;2022-08-21T06:12:04;8.63;;;6.22;;
60722;SDS011;46574;52.818;6.516;2022-08-21T06:14:34;7.57;;;6.22;;
60722;SDS011;46574;52.818;6.516;2022-08-21T06:17:04;6.95;;;6.07;;
60722;SDS011;46574;52.818;6.516;2022-08-21T06:19:31;9.88;;;6.43;;
60722;SDS011;46574;52.818;6.516;2022-08-21T06:21:57;10.68;;;7.10;;
60722;SDS011;46574;52.818;6.516;2022-08-21T06:24:23;8.55;;;6.30;;
60722;SDS011;46574;52.818;6.516;2022-08-21T06:26:49;11.73;;;7.43;;
60722;SDS011;46574;52.818;6.516;2022-08-21T06:29:15;7.82;;;5.88;;
60722;SDS011;46574;52.818;6.516;2022-08-21T06:31:42;9.48;;;6.43;;
60722;SDS011;46574;52.818;6.516;2022-08-21T06:34:08;9.68;;;6.50;;
60722;SDS011;46574;52.818;6.516;2022-08-21T06:36:35;6.53;;;5.22;;
60722;SDS011;46574;52.818;6.516;2022-08-21T06:39:00;6.25;;;5.28;;
60722;SDS011;46574;52.818;6.516;2022-08-21T06:41:26;9.02;;;5.90;;
60722;SDS011;46574;52.818;6.516;2022-08-21T06:43:53;8.80;;;6.22;;
60722;SDS011;46574;52.818;6.516;2022-08-21T06:46:19;7.68;;;6.30;;
60722;SDS011;46574;52.818;6.516;2022-08-21T06:48:45;10.20;;;6.30;;
60722;SDS011;46574;52.818;6.516;2022-08-21T06:51:11;9.48;;;6.03;;
60722;SDS011;46574;52.818;6.516;2022-08-21T06:53:36;5.40;;;4.82;;
60722;SDS011;46574;52.818;6.516;2022-08-21T06:56:02;7.55;;;5.13;;
60722;SDS011;46574;52.818;6.516;2022-08-21T06:58:29;7.38;;;5.50;;
60722;SDS011;46574;52.818;6.516;2022-08-21T07:00:55;8.75;;;5.80;;
60722;SDS011;46574;52.818;6.516;2022-08-21T07:03:25;7.97;;;5.50;;
60722;SDS011;46574;52.818;6.516;2022-08-21T07:05:56;6.88;;;4.78;;
60722;SDS011;46574;52.818;6.516;2022-08-21T07:08:23;7.00;;;4.88;;
60722;SDS011;46574;52.818;6.516;2022-08-21T07:10:50;7.40;;;5.07;;
60722;SDS011;46574;52.818;6.516;2022-08-21T07:13:17;9.38;;;6.40;;
60722;SDS011;46574;52.818;6.516;2022-08-21T07:15:45;9.77;;;5.22;;
60722;SDS011;46574;52.818;6.516;2022-08-21T07:18:11;9.05;;;4.78;;
60722;SDS011;46574;52.818;6.516;2022-08-21T07:20:38;7.20;;;4.93;;
60722;SDS011;46574;52.818;6.516;2022-08-21T07:23:05;8.88;;;5.10;;
60722;SDS011;46574;52.818;6.516;2022-08-21T07:25:44;7.07;;;4.55;;
60722;SDS011;46574;52.818;6.516;2022-08-21T07:28:10;11.65;;;5.22;;
60722;SDS011;46574;52.818;6.516;2022-08-21T07:30:36;7.10;;;4.25;;
60722;SDS011;46574;52.818;6.516;2022-08-21T07:33:02;7.97;;;4.93;;
60722;SDS011;46574;52.818;6.516;2022-08-21T07:35:27;8.82;;;4.30;;
60722;SDS011;46574;52.818;6.516;2022-08-21T07:37:53;6.88;;;4.65;;
60722;SDS011;46574;52.818;6.516;2022-08-21T07:40:19;7.47;;;4.78;;
60722;SDS011;46574;52.818;6.516;2022-08-21T07:42:47;8.70;;;4.20;;
60722;SDS011;46574;52.818;6.516;2022-08-21T07:45:16;6.20;;;4.03;;
60722;SDS011;46574;52.818;6.516;2022-08-21T07:47:43;8.15;;;4.13;;
60722;SDS011;46574;52.818;6.516;2022-08-21T07:50:10;8.02;;;4.20;;
60722;SDS011;46574;52.818;6.516;2022-08-21T07:52:37;9.27;;;4.47;;
60722;SDS011;46574;52.818;6.516;2022-08-21T07:55:02;8.00;;;3.88;;
60722;SDS011;46574;52.818;6.516;2022-08-21T07:57:29;10.50;;;4.43;;
60722;SDS011;46574;52.818;6.516;2022-08-21T07:59:54;8.27;;;4.03;;
60722;SDS011;46574;52.818;6.516;2022-08-21T08:02:24;6.13;;;3.40;;
60722;SDS011;46574;52.818;6.516;2022-08-21T08:04:51;8.85;;;4.30;;
60722;SDS011;46574;52.818;6.516;2022-08-21T08:07:16;6.97;;;3.53;;
60722;SDS011;46574;52.818;6.516;2022-08-21T08:09:42;7.38;;;3.65;;
60722;SDS011;46574;52.818;6.516;2022-08-21T08:12:08;7.78;;;4.13;;
60722;SDS011;46574;52.818;6.516;2022-08-21T08:14:35;8.43;;;4.72;;
60722;SDS011;46574;52.818;6.516;2022-08-21T08:17:01;7.78;;;4.50;;
60722;SDS011;46574;52.818;6.516;2022-08-21T08:19:27;10.13;;;4.30;;
60722;SDS011;46574;52.818;6.516;2022-08-21T08:21:54;8.73;;;5.22;;
60722;SDS011;46574;52.818;6.516;2022-08-21T08:24:19;6.53;;;3.92;;
60722;SDS011;46574;52.818;6.516;2022-08-21T08:26:45;6.13;;;4.10;;
60722;SDS011;46574;52.818;6.516;2022-08-21T08:29:11;7.97;;;4.90;;
60722;SDS011;46574;52.818;6.516;2022-08-21T08:31:37;10.52;;;4.20;;
60722;SDS011;46574;52.818;6.516;2022-08-21T08:34:03;8.40;;;4.22;;
60722;SDS011;46574;52.818;6.516;2022-08-21T08:36:33;7.13;;;4.40;;
60722;SDS011;46574;52.818;6.516;2022-08-21T08:39:02;8.52;;;4.20;;
60722;SDS011;46574;52.818;6.516;2022-08-21T08:41:29;8.07;;;4.03;;
60722;SDS011;46574;52.818;6.516;2022-08-21T08:44:02;7.93;;;4.13;;
60722;SDS011;46574;52.818;6.516;2022-08-21T08:46:38;7.88;;;3.45;;
60722;SDS011;46574;52.818;6.516;2022-08-21T08:49:08;6.30;;;2.78;;
60722;SDS011;46574;52.818;6.516;2022-08-21T08:51:46;6.40;;;2.63;;
60722;SDS011;46574;52.818;6.516;2022-08-21T08:54:27;6.53;;;2.75;;
60722;SDS011;46574;52.818;6.516;2022-08-21T08:57:00;6.25;;;2.53;;
60722;SDS011;46574;52.818;6.516;2022-08-21T08:59:32;4.47;;;2.00;;
60722;SDS011;46574;52.818;6.516;2022-08-21T09:02:06;4.72;;;2.15;;
60722;SDS011;46574;52.818;6.516;2022-08-21T09:04:35;4.72;;;2.33;;
60722;SDS011;46574;52.818;6.516;2022-08-21T09:15:02;5.88;;;1.92;;
60722;SDS011;46574;52.818;6.516;2022-08-21T09:20:37;4.13;;;1.75;;
60722;SDS011;46574;52.818;6.516;2022-08-21T09:25:56;5.35;;;2.00;;
60722;SDS011;46574;52.818;6.516;2022-08-21T09:28:35;7.43;;;1.90;;
60722;SDS011;46574;52.818;6.516;2022-08-21T09:31:03;4.30;;;2.10;;
60722;SDS011;46574;52.818;6.516;2022-08-21T09:33:32;5.30;;;1.90;;
60722;SDS011;46574;52.818;6.516;2022-08-21T09:35:58;4.68;;;1.80;;
60722;SDS011;46574;52.818;6.516;2022-08-21T09:38:26;6.95;;;2.35;;
60722;SDS011;46574;52.818;6.516;2022-08-21T09:40:59;5.45;;;2.50;;
60722;SDS011;46574;52.818;6.516;2022-08-21T09:43:30;5.20;;;2.05;;
60722;SDS011;46574;52.818;6.516;2022-08-21T09:46:09;7.47;;;2.08;;
60722;SDS011;46574;52.818;6.516;2022-08-21T09:48:48;4.75;;;1.90;;
60722;SDS011;46574;52.818;6.516;2022-08-21T09:51:21;5.40;;;1.90;;
60722;SDS011;46574;52.818;6.516;2022-08-21T09:54:30;8.13;;;2.20;;
60722;SDS011;46574;52.818;6.516;2022-08-21T10:03:16;5.78;;;1.90;;
60722;SDS011;46574;52.818;6.516;2022-08-21T10:05:51;6.65;;;2.30;;
60722;SDS011;46574;52.818;6.516;2022-08-21T10:08:25;5.85;;;2.10;;
60722;SDS011;46574;52.818;6.516;2022-08-21T10:10:57;5.37;;;2.33;;
60722;SDS011;46574;52.818;6.516;2022-08-21T10:13:33;6.07;;;2.30;;
60722;SDS011;46574;52.818;6.516;2022-08-21T10:16:27;8.25;;;3.00;;
60722;SDS011;46574;52.818;6.516;2022-08-21T10:19:15;5.55;;;1.80;;
60722;SDS011;46574;52.818;6.516;2022-08-21T10:21:53;4.53;;;2.08;;
60722;SDS011;46574;52.818;6.516;2022-08-21T10:24:29;3.88;;;1.95;;
60722;SDS011;46574;52.818;6.516;2022-08-21T10:30:13;5.63;;;2.35;;
60722;SDS011;46574;52.818;6.516;2022-08-21T10:32:52;4.93;;;2.25;;
60722;SDS011;46574;52.818;6.516;2022-08-21T10:35:28;4.80;;;2.20;;
60722;SDS011;46574;52.818;6.516;2022-08-21T10:38:44;7.50;;;2.22;;
60722;SDS011;46574;52.818;6.516;2022-08-21T10:41:58;4.95;;;1.90;;
60722;SDS011;46574;52.818;6.516;2022-08-21T10:44:37;6.20;;;2.20;;
60722;SDS011;46574;52.818;6.516;2022-08-21T10:50:15;4.50;;;2.67;;
60722;SDS011;46574;52.818;6.516;2022-08-21T10:52:52;4.85;;;1.95;;
60722;SDS011;46574;52.818;6.516;2022-08-21T10:55:20;5.72;;;2.03;;
60722;SDS011;46574;52.818;6.516;2022-08-21T10:57:57;4.10;;;1.90;;
60722;SDS011;46574;52.818;6.516;2022-08-21T11:00:28;6.40;;;2.10;;
60722;SDS011;46574;52.818;6.516;2022-08-21T11:05:38;4.88;;;1.98;;
60722;SDS011;46574;52.818;6.516;2022-08-21T11:08:12;4.68;;;1.73;;
60722;SDS011;46574;52.818;6.516;2022-08-21T11:10:44;6.20;;;1.88;;
60722;SDS011;46574;52.818;6.516;2022-08-21T11:19:52;3.88;;;1.80;;
60722;SDS011;46574;52.818;6.516;2022-08-21T11:22:21;6.15;;;2.17;;
60722;SDS011;46574;52.818;6.516;2022-08-21T11:24:57;6.95;;;1.98;;
60722;SDS011;46574;52.818;6.516;2022-08-21T11:27:42;4.55;;;2.00;;
60722;SDS011;46574;52.818;6.516;2022-08-21T11:30:11;3.77;;;1.90;;
60722;SDS011;46574;52.818;6.516;2022-08-21T11:32:42;5.40;;;2.28;;
60722;SDS011;46574;52.818;6.516;2022-08-21T11:37:59;5.72;;;1.90;;
60722;SDS011;46574;52.818;6.516;2022-08-21T11:40:49;4.50;;;2.00;;
60722;SDS011;46574;52.818;6.516;2022-08-21T11:43:19;4.03;;;1.70;;
60722;SDS011;46574;52.818;6.516;2022-08-21T11:46:22;4.28;;;2.00;;
60722;SDS011;46574;52.818;6.516;2022-08-21T11:48:59;3.67;;;1.83;;
60722;SDS011;46574;52.818;6.516;2022-08-21T11:51:53;4.65;;;1.80;;
60722;SDS011;46574;52.818;6.516;2022-08-21T11:54:37;4.65;;;1.90;;
60722;SDS011;46574;52.818;6.516;2022-08-21T11:57:20;3.45;;;1.90;;
60722;SDS011;46574;52.818;6.516;2022-08-21T12:02:45;7.38;;;2.20;;
60722;SDS011;46574;52.818;6.516;2022-08-21T12:05:26;4.97;;;2.05;;
60722;SDS011;46574;52.818;6.516;2022-08-21T12:08:04;5.95;;;2.03;;
60722;SDS011;46574;52.818;6.516;2022-08-21T12:10:37;4.32;;;1.70;;
60722;SDS011;46574;52.818;6.516;2022-08-21T12:13:07;6.07;;;2.42;;
60722;SDS011;46574;52.818;6.516;2022-08-21T12:15:36;3.63;;;1.70;;
60722;SDS011;46574;52.818;6.516;2022-08-21T12:18:28;3.17;;;1.80;;
60722;SDS011;46574;52.818;6.516;2022-08-21T12:21:00;4.43;;;1.95;;
60722;SDS011;46574;52.818;6.516;2022-08-21T12:23:32;2.30;;;1.55;;
60722;SDS011;46574;52.818;6.516;2022-08-21T12:29:16;4.80;;;1.85;;
60722;SDS011;46574;52.818;6.516;2022-08-21T12:32:00;4.95;;;2.10;;
60722;SDS011;46574;52.818;6.516;2022-08-21T12:39:33;3.72;;;2.20;;
60722;SDS011;46574;52.818;6.516;2022-08-21T12:42:18;4.90;;;1.92;;
60722;SDS011;46574;52.818;6.516;2022-08-21T12:44:55;6.97;;;2.15;;
60722;SDS011;46574;52.818;6.516;2022-08-21T12:47:27;5.20;;;2.08;;
60722;SDS011;46574;52.818;6.516;2022-08-21T12:50:00;4.55;;;2.13;;
60722;SDS011;46574;52.818;6.516;2022-08-21T12:52:59;3.17;;;1.92;;
60722;SDS011;46574;52.818;6.516;2022-08-21T12:55:32;4.05;;;1.90;;
60722;SDS011;46574;52.818;6.516;2022-08-21T12:57:58;4.85;;;2.47;;
60722;SDS011;46574;52.818;6.516;2022-08-21T13:00:26;4.85;;;2.10;;
60722;SDS011;46574;52.818;6.516;2022-08-21T13:02:54;3.55;;;1.90;;
60722;SDS011;46574;52.818;6.516;2022-08-21T13:07:59;3.15;;;2.00;;
60722;SDS011;46574;52.818;6.516;2022-08-21T13:10:33;3.90;;;2.13;;
60722;SDS011;46574;52.818;6.516;2022-08-21T13:13:02;4.47;;;2.58;;
60722;SDS011;46574;52.818;6.516;2022-08-21T13:15:34;3.88;;;1.98;;
60722;SDS011;46574;52.818;6.516;2022-08-21T13:18:03;6.10;;;2.47;;
60722;SDS011;46574;52.818;6.516;2022-08-21T13:20:31;4.93;;;2.13;;
60722;SDS011;46574;52.818;6.516;2022-08-21T13:23:00;4.38;;;2.30;;
60722;SDS011;46574;52.818;6.516;2022-08-21T13:25:29;5.75;;;2.63;;
60722;SDS011;46574;52.818;6.516;2022-08-21T13:30:38;4.50;;;2.50;;
60722;SDS011;46574;52.818;6.516;2022-08-21T13:33:08;6.82;;;2.53;;
60722;SDS011;46574;52.818;6.516;2022-08-21T13:35:45;3.70;;;1.95;;
60722;SDS011;46574;52.818;6.516;2022-08-21T13:38:34;4.45;;;2.22;;
60722;SDS011;46574;52.818;6.516;2022-08-21T13:41:05;4.82;;;2.30;;
60722;SDS011;46574;52.818;6.516;2022-08-21T13:43:49;5.63;;;2.03;;
60722;SDS011;46574;52.818;6.516;2022-08-21T13:46:22;5.15;;;2.55;;
60722;SDS011;46574;52.818;6.516;2022-08-21T13:48:51;4.57;;;2.30;;
60722;SDS011;46574;52.818;6.516;2022-08-21T13:51:18;4.90;;;2.13;;
60722;SDS011;46574;52.818;6.516;2022-08-21T13:53:46;6.18;;;2.35;;
60722;SDS011;46574;52.818;6.516;2022-08-21T13:56:24;7.30;;;2.40;;
60722;SDS011;46574;52.818;6.516;2022-08-21T13:58:52;6.53;;;2.03;;
60722;SDS011;46574;52.818;6.516;2022-08-21T14:03:52;5.75;;;2.25;;
60722;SDS011;46574;52.818;6.516;2022-08-21T14:06:24;6.38;;;2.25;;
60722;SDS011;46574;52.818;6.516;2022-08-21T14:08:56;5.30;;;2.30;;
60722;SDS011;46574;52.818;6.516;2022-08-21T14:11:25;6.13;;;2.30;;
60722;SDS011;46574;52.818;6.516;2022-08-21T14:14:01;6.28;;;2.22;;
60722;SDS011;46574;52.818;6.516;2022-08-21T14:16:44;5.68;;;2.13;;
60722;SDS011;46574;52.818;6.516;2022-08-21T14:19:19;4.80;;;2.40;;
60722;SDS011;46574;52.818;6.516;2022-08-21T14:21:50;3.47;;;2.13;;
60722;SDS011;46574;52.818;6.516;2022-08-21T14:26:53;3.42;;;2.35;;
60722;SDS011;46574;52.818;6.516;2022-08-21T14:29:33;4.78;;;2.65;;
60722;SDS011;46574;52.818;6.516;2022-08-21T14:35:02;6.07;;;2.47;;
60722;SDS011;46574;52.818;6.516;2022-08-21T14:37:28;4.38;;;2.30;;
60722;SDS011;46574;52.818;6.516;2022-08-21T14:39:53;5.38;;;2.47;;
60722;SDS011;46574;52.818;6.516;2022-08-21T14:42:19;3.80;;;2.50;;
60722;SDS011;46574;52.818;6.516;2022-08-21T14:44:45;6.43;;;2.50;;
60722;SDS011;46574;52.818;6.516;2022-08-21T14:47:10;5.13;;;2.60;;
60722;SDS011;46574;52.818;6.516;2022-08-21T14:49:36;5.07;;;2.47;;
60722;SDS011;46574;52.818;6.516;2022-08-21T14:52:02;5.65;;;2.30;;
60722;SDS011;46574;52.818;6.516;2022-08-21T14:54:29;8.43;;;2.60;;
60722;SDS011;46574;52.818;6.516;2022-08-21T14:56:56;4.72;;;2.65;;
60722;SDS011;46574;52.818;6.516;2022-08-21T14:59:28;3.42;;;2.10;;
60722;SDS011;46574;52.818;6.516;2022-08-21T15:01:54;5.50;;;2.40;;
60722;SDS011;46574;52.818;6.516;2022-08-21T15:04:21;7.72;;;2.75;;
60722;SDS011;46574;52.818;6.516;2022-08-21T15:06:46;4.45;;;2.80;;
60722;SDS011;46574;52.818;6.516;2022-08-21T15:09:12;5.60;;;2.22;;
60722;SDS011;46574;52.818;6.516;2022-08-21T15:11:37;5.07;;;2.88;;
60722;SDS011;46574;52.818;6.516;2022-08-21T15:14:04;4.50;;;2.30;;
60722;SDS011;46574;52.818;6.516;2022-08-21T15:16:32;5.20;;;2.92;;
60722;SDS011;46574;52.818;6.516;2022-08-21T15:18:59;7.50;;;2.20;;
60722;SDS011;46574;52.818;6.516;2022-08-21T15:21:28;4.90;;;2.20;;
60722;SDS011;46574;52.818;6.516;2022-08-21T15:23:54;7.70;;;2.83;;
60722;SDS011;46574;52.818;6.516;2022-08-21T15:26:20;5.35;;;2.47;;
60722;SDS011;46574;52.818;6.516;2022-08-21T15:28:47;7.13;;;2.63;;
60722;SDS011;46574;52.818;6.516;2022-08-21T15:31:13;6.05;;;2.38;;
60722;SDS011;46574;52.818;6.516;2022-08-21T15:33:38;6.20;;;2.28;;
60722;SDS011;46574;52.818;6.516;2022-08-21T15:36:04;4.03;;;2.17;;
60722;SDS011;46574;52.818;6.516;2022-08-21T15:38:30;3.45;;;1.98;;
60722;SDS011;46574;52.818;6.516;2022-08-21T15:40:55;4.10;;;1.90;;
60722;SDS011;46574;52.818;6.516;2022-08-21T15:45:52;5.45;;;2.17;;
60722;SDS011;46574;52.818;6.516;2022-08-21T15:48:17;4.70;;;1.90;;
60722;SDS011;46574;52.818;6.516;2022-08-21T15:50:43;3.92;;;2.00;;
60722;SDS011;46574;52.818;6.516;2022-08-21T15:53:09;5.10;;;2.15;;
60722;SDS011;46574;52.818;6.516;2022-08-21T15:55:35;4.53;;;2.20;;
60722;SDS011;46574;52.818;6.516;2022-08-21T15:58:00;3.63;;;2.03;;
60722;SDS011;46574;52.818;6.516;2022-08-21T16:00:28;4.40;;;1.80;;
60722;SDS011;46574;52.818;6.516;2022-08-21T16:02:57;5.83;;;2.53;;
60722;SDS011;46574;52.818;6.516;2022-08-21T16:05:24;4.75;;;2.25;;
60722;SDS011;46574;52.818;6.516;2022-08-21T16:07:50;3.22;;;1.65;;
60722;SDS011;46574;52.818;6.516;2022-08-21T16:10:18;4.15;;;1.95;;